Pagrindinis puslapis
METAR-TAF:

METAR-TAF

Oro uostai :

Vestmanaejaras, Islandija

platuma: 63-24N, ilguma: 020-17W, Aukštis: 118 m

Dabartinis oras

Ataskaita buvo paskelbta 48 minutes, ne 08:00 UTC
Vėjas 17 kt iš Šiaurės
Temperatūra 6°C
Drėgmė 56%
Slėgis 1019 hPa
Matomumas 10 km arba daugiau
nėra debesų žemiau 1500 m ir nėra kamuolinių lietaus debesų

METAR: BIVM 050800Z 35017KT CAVOK 06/M02 Q1019

Laikas: 08:48 (08:48 UTC)

Prognozė

Ataskaita buvo paskelbta 1 valandą ir 34 minutes, ne 07:14 UTC
Prognozė galioja nuo 05 metu 08 UTC su 05 metu 17 UTC
Vėjas 20 kt iš Šiaurės
Matomumas 10 km arba daugiau
nėra debesų žemiau 1500 m ir nėra kamuolinių lietaus debesų

TAF: BIVM 050714Z 0508/0517 36020KT CAVOK

Orai ataskaitas ir orų prognozės (METAR, TAF).

turimą stotys yra geltonos ir raudonos taškus žemėlapyje.

Perkelti pele per norėdami pamatyti stoties vardą.

Tada spustelėkite, norėdami matyti oro stebėjimo ir prognozės.

Norėdami pakeisti žemėlapį: spustelėkite ant žalios mygtukų su juodo kryžiaus žemyn,; žalią mygtuką su brūkšneliu, jei norite nutolinti; arba žalių rodyklių gretimoms žemėlapius.


METAR-TAF: